createdAt,value
2023-01-17T00:01:34.392Z,3.10
2023-01-17T00:04:20.119Z,6.63
2023-01-17T00:07:05.717Z,7.20
2023-01-17T00:12:19.277Z,5.20
2023-01-17T00:14:48.542Z,3.58
2023-01-17T00:17:16.445Z,6.32
2023-01-17T00:20:02.398Z,8.25
2023-01-17T00:22:49.560Z,6.20
2023-01-17T00:25:37.148Z,9.48
2023-01-17T00:28:05.307Z,6.65
2023-01-17T00:30:33.899Z,4.68
2023-01-17T00:33:01.132Z,3.95
2023-01-17T00:35:29.729Z,6.43
2023-01-17T00:38:05.065Z,4.82
2023-01-17T00:40:32.031Z,5.72
2023-01-17T00:43:19.678Z,6.55
2023-01-17T00:46:06.428Z,7.85
2023-01-17T00:48:52.844Z,8.32
2023-01-17T00:51:38.653Z,6.03
2023-01-17T00:54:24.478Z,5.82
2023-01-17T00:57:10.306Z,4.80
2023-01-17T00:59:56.318Z,9.43
2023-01-17T01:02:44.124Z,11.20
2023-01-17T01:05:30.308Z,6.57
2023-01-17T01:08:15.672Z,9.32
2023-01-17T01:11:01.790Z,4.05
2023-01-17T01:13:49.601Z,8.63
2023-01-17T01:16:35.775Z,10.57
2023-01-17T01:19:24.069Z,10.38
2023-01-17T01:22:09.775Z,7.65
2023-01-17T01:24:54.823Z,7.10
2023-01-17T01:27:40.402Z,10.10
2023-01-17T01:30:27.120Z,7.13
2023-01-17T01:33:12.674Z,7.28
2023-01-17T01:38:11.065Z,7.90
2023-01-17T01:40:47.620Z,8.77
2023-01-17T01:43:19.392Z,13.00
2023-01-17T01:45:51.873Z,8.45
2023-01-17T01:48:32.816Z,11.50
2023-01-17T01:51:03.773Z,10.82
2023-01-17T01:53:34.237Z,7.65
2023-01-17T01:56:03.061Z,10.38
2023-01-17T01:58:37.509Z,9.98
2023-01-17T02:01:06.568Z,11.20
2023-01-17T02:03:35.699Z,11.93
2023-01-17T02:06:16.391Z,13.02
2023-01-17T02:08:44.793Z,10.15
2023-01-17T02:11:13.331Z,11.85
2023-01-17T02:13:42.472Z,11.52
2023-01-17T02:16:21.968Z,12.05
2023-01-17T02:18:58.095Z,10.07
2023-01-17T02:21:29.677Z,9.93
2023-01-17T02:24:40.236Z,10.90
2023-01-17T02:27:17.231Z,11.25
2023-01-17T02:30:14.874Z,16.05
2023-01-17T02:33:15.166Z,13.02
2023-01-17T02:35:54.716Z,13.68
2023-01-17T02:38:33.281Z,13.55
2023-01-17T02:41:06.131Z,12.00
2023-01-17T02:43:34.771Z,16.92
2023-01-17T02:46:02.810Z,14.38
2023-01-17T02:48:33.316Z,14.95
2023-01-17T02:51:22.150Z,15.52
2023-01-17T02:54:05.366Z,12.00
2023-01-17T02:56:49.253Z,11.27
2023-01-17T02:59:37.088Z,16.88
2023-01-17T03:02:16.898Z,14.65
2023-01-17T03:04:51.612Z,12.32
2023-01-17T03:07:25.170Z,9.95
2023-01-17T03:09:59.754Z,13.38
2023-01-17T03:12:29.958Z,10.43
2023-01-17T03:14:58.062Z,10.05
2023-01-17T03:17:30.948Z,9.75
2023-01-17T03:19:59.224Z,12.77
2023-01-17T03:22:28.529Z,17.42
2023-01-17T03:24:56.911Z,17.75
2023-01-17T03:27:24.830Z,10.63
2023-01-17T03:29:52.713Z,10.55
2023-01-17T03:32:21.067Z,12.60
2023-01-17T03:34:49.020Z,11.18
2023-01-17T03:37:16.824Z,13.48
2023-01-17T03:39:46.657Z,11.25
2023-01-17T03:42:14.551Z,13.18
2023-01-17T03:44:42.420Z,12.93
2023-01-17T03:47:12.220Z,10.93
2023-01-17T03:49:40.501Z,14.27
2023-01-17T03:52:09.010Z,13.98
2023-01-17T03:54:37.140Z,12.05
2023-01-17T03:57:06.636Z,13.63
2023-01-17T03:59:34.469Z,14.45
2023-01-17T04:02:03.208Z,13.90
2023-01-17T04:04:31.099Z,13.15
2023-01-17T04:06:59.043Z,14.88
2023-01-17T04:09:27.381Z,20.90
2023-01-17T04:11:56.630Z,13.75
2023-01-17T04:14:25.909Z,12.65
2023-01-17T04:16:54.475Z,14.77
2023-01-17T04:19:22.466Z,18.98
2023-01-17T04:21:50.227Z,16.05
2023-01-17T04:24:18.411Z,14.68
2023-01-17T04:26:46.313Z,14.18
2023-01-17T04:29:14.123Z,15.18
2023-01-17T04:31:44.093Z,14.13
2023-01-17T04:34:11.928Z,13.57
2023-01-17T04:36:39.885Z,13.52
2023-01-17T04:39:08.724Z,16.17
2023-01-17T04:41:36.843Z,12.90
2023-01-17T04:44:05.200Z,14.15
2023-01-17T04:46:33.597Z,19.83
2023-01-17T04:49:02.877Z,14.55
2023-01-17T04:51:30.764Z,11.80
2023-01-17T04:53:59.249Z,13.52
2023-01-17T04:56:27.074Z,12.30
2023-01-17T04:58:54.963Z,15.48
2023-01-17T05:01:23.200Z,14.95
2023-01-17T05:03:51.134Z,13.52
2023-01-17T05:06:20.355Z,14.85
2023-01-17T05:08:48.722Z,19.90
2023-01-17T05:11:16.626Z,14.45
2023-01-17T05:13:44.624Z,15.98
2023-01-17T05:16:13.252Z,17.45
2023-01-17T05:18:41.058Z,18.02
2023-01-17T05:21:08.839Z,16.55
2023-01-17T05:23:38.354Z,16.40
2023-01-17T05:26:06.406Z,16.60
2023-01-17T05:28:34.247Z,20.63
2023-01-17T05:31:02.572Z,14.70
2023-01-17T05:33:30.442Z,15.18
2023-01-17T05:35:58.414Z,14.65
2023-01-17T05:38:26.838Z,14.85
2023-01-17T05:40:56.194Z,16.70
2023-01-17T05:43:24.027Z,16.60
2023-01-17T05:45:52.496Z,11.75
2023-01-17T05:48:20.622Z,13.73
2023-01-17T05:50:48.505Z,16.95
2023-01-17T05:53:18.331Z,14.45
2023-01-17T05:55:47.739Z,15.07
2023-01-17T05:58:20.146Z,16.40
2023-01-17T06:00:48.517Z,18.63
2023-01-17T06:03:16.833Z,13.23
2023-01-17T06:05:45.456Z,15.38
2023-01-17T06:08:13.272Z,12.90
2023-01-17T06:10:41.219Z,18.02
2023-01-17T06:13:11.341Z,12.07
2023-01-17T06:15:41.092Z,11.57
2023-01-17T06:18:11.247Z,15.45
2023-01-17T06:20:39.555Z,13.95
2023-01-17T06:23:11.354Z,15.82
2023-01-17T06:25:40.121Z,14.52
2023-01-17T06:28:08.662Z,14.35
2023-01-17T06:30:37.676Z,14.73
2023-01-17T06:33:07.175Z,13.75
2023-01-17T06:35:35.259Z,10.63
2023-01-17T06:38:03.576Z,15.43
2023-01-17T06:40:31.795Z,18.17
2023-01-17T06:43:04.238Z,12.82
2023-01-17T06:45:33.949Z,13.93
2023-01-17T06:48:03.934Z,15.98
2023-01-17T06:50:34.189Z,18.05
2023-01-17T06:53:04.243Z,14.55
2023-01-17T06:55:35.044Z,17.40
2023-01-17T06:58:03.646Z,22.70
2023-01-17T07:00:35.381Z,22.35
2023-01-17T07:03:03.555Z,19.15
2023-01-17T07:05:31.353Z,16.52
2023-01-17T07:08:00.630Z,14.73
2023-01-17T07:10:28.549Z,14.07
2023-01-17T07:13:00.907Z,14.48
2023-01-17T07:15:28.965Z,15.43
2023-01-17T07:17:56.755Z,12.90
2023-01-17T07:20:24.721Z,15.70
2023-01-17T07:22:52.657Z,15.45
2023-01-17T07:25:22.076Z,18.52
2023-01-17T07:27:50.404Z,17.42
2023-01-17T07:30:19.083Z,17.88
2023-01-17T07:32:52.627Z,13.60
2023-01-17T07:35:20.868Z,11.45
2023-01-17T07:37:49.330Z,17.15
2023-01-17T07:40:19.017Z,15.25
2023-01-17T07:42:48.488Z,16.55
2023-01-17T07:45:17.619Z,15.82
2023-01-17T07:47:45.788Z,18.23
2023-01-17T07:50:14.174Z,14.68
2023-01-17T07:52:42.354Z,13.13
2023-01-17T07:55:11.516Z,12.45
2023-01-17T07:57:39.498Z,14.32
2023-01-17T08:00:11.058Z,12.57
2023-01-17T08:02:39.462Z,15.15
2023-01-17T08:05:07.873Z,16.08
2023-01-17T08:07:35.850Z,16.35
2023-01-17T08:10:04.281Z,15.80
2023-01-17T08:12:32.114Z,15.57
2023-01-17T08:14:59.998Z,13.18
2023-01-17T08:17:29.900Z,18.48
2023-01-17T08:19:58.211Z,13.80
2023-01-17T08:22:25.952Z,14.93
2023-01-17T08:24:54.202Z,14.07
2023-01-17T08:27:22.056Z,9.68
2023-01-17T08:29:50.764Z,15.80
2023-01-17T08:32:20.534Z,12.45
2023-01-17T08:34:49.871Z,11.30
2023-01-17T08:37:17.803Z,17.25
2023-01-17T08:39:46.086Z,17.02
2023-01-17T08:42:13.885Z,12.35
2023-01-17T08:44:41.880Z,10.35
2023-01-17T08:47:11.542Z,11.82
2023-01-17T08:49:39.592Z,10.98
2023-01-17T08:52:09.216Z,14.13
2023-01-17T08:54:37.436Z,13.10
2023-01-17T08:57:05.521Z,16.13
2023-01-17T08:59:33.385Z,18.35
2023-01-17T09:02:07.329Z,13.18
2023-01-17T09:04:35.188Z,13.40
2023-01-17T09:07:03.059Z,12.25
2023-01-17T09:09:32.494Z,11.90
2023-01-17T09:12:00.178Z,12.95
2023-01-17T09:14:28.188Z,13.48
2023-01-17T09:16:56.564Z,13.68
2023-01-17T09:19:24.276Z,13.73
2023-01-17T09:21:52.263Z,12.75
2023-01-17T09:24:20.606Z,17.45
2023-01-17T09:26:49.753Z,16.77
2023-01-17T09:29:18.864Z,11.73
2023-01-17T09:31:47.862Z,15.60
2023-01-17T09:34:15.672Z,14.60
2023-01-17T09:36:43.782Z,15.38
2023-01-17T09:39:15.236Z,17.45
2023-01-17T09:41:53.266Z,17.20
2023-01-17T09:44:27.027Z,14.48
2023-01-17T09:46:58.108Z,15.02
2023-01-17T09:49:35.834Z,17.42
2023-01-17T09:52:04.577Z,17.77
2023-01-17T09:54:36.607Z,14.68
2023-01-17T09:57:14.595Z,13.75
2023-01-17T10:00:02.609Z,14.77
2023-01-17T10:02:55.511Z,20.33
2023-01-17T10:05:41.886Z,16.52
2023-01-17T10:08:22.952Z,15.48
2023-01-17T10:11:01.042Z,17.77
2023-01-17T10:13:42.520Z,15.32
2023-01-17T10:16:30.488Z,17.55
2023-01-17T10:19:33.495Z,15.85
2023-01-17T10:22:32.334Z,19.58
2023-01-17T10:25:16.195Z,18.20
2023-01-17T10:27:55.746Z,20.00
2023-01-17T10:30:31.285Z,16.08
2023-01-17T10:33:06.084Z,19.15
2023-01-17T10:35:39.431Z,17.30
2023-01-17T10:38:13.256Z,18.95
2023-01-17T10:40:45.871Z,17.95
2023-01-17T10:43:20.756Z,22.27
2023-01-17T10:45:54.282Z,15.98
2023-01-17T10:48:35.551Z,17.42
2023-01-17T10:51:15.002Z,15.45
2023-01-17T10:54:00.555Z,17.83
2023-01-17T10:56:31.013Z,17.65
2023-01-17T10:59:18.700Z,19.70
2023-01-17T11:01:50.376Z,16.67
2023-01-17T11:04:21.995Z,11.45
2023-01-17T11:07:12.087Z,12.43
2023-01-17T11:09:41.232Z,13.93
2023-01-17T11:12:20.477Z,9.93
2023-01-17T11:15:01.684Z,15.77
2023-01-17T11:17:32.348Z,9.98
2023-01-17T11:20:17.608Z,10.65
2023-01-17T11:22:49.342Z,13.15
2023-01-17T11:25:23.845Z,13.07
2023-01-17T11:28:02.842Z,9.40
2023-01-17T11:30:30.891Z,9.93
2023-01-17T11:33:03.974Z,10.00
2023-01-17T11:35:34.351Z,10.15
2023-01-17T11:38:07.151Z,11.65
2023-01-17T11:40:39.298Z,12.95
2023-01-17T11:43:19.949Z,14.77
2023-01-17T11:46:00.675Z,15.60
2023-01-17T11:48:35.950Z,55.15
2023-01-17T11:53:36.212Z,13.40
2023-01-17T11:56:07.329Z,15.23
2023-01-17T11:58:37.114Z,10.52
2023-01-17T12:01:27.862Z,8.95
2023-01-17T12:04:18.167Z,10.55
2023-01-17T12:06:58.241Z,10.32
2023-01-17T12:09:32.280Z,11.02
2023-01-17T12:12:28.740Z,8.43
2023-01-17T12:15:08.995Z,6.05
2023-01-17T12:17:54.495Z,8.77
2023-01-17T12:20:32.901Z,8.95
2023-01-17T12:23:14.419Z,6.85
2023-01-17T12:25:57.600Z,7.65
2023-01-17T12:29:00.923Z,6.22
2023-01-17T12:31:35.203Z,6.13
2023-01-17T12:34:15.128Z,8.00
2023-01-17T12:36:49.969Z,9.70
2023-01-17T12:39:23.020Z,7.88
2023-01-17T12:42:04.908Z,5.78
2023-01-17T12:44:46.627Z,9.52
2023-01-17T12:47:16.917Z,3.78
2023-01-17T12:49:59.425Z,5.28
2023-01-17T12:52:39.735Z,4.47
2023-01-17T12:55:17.713Z,6.53
2023-01-17T12:57:53.031Z,11.25
2023-01-17T13:02:58.130Z,4.90
2023-01-17T13:05:31.264Z,10.80
2023-01-17T13:08:06.393Z,14.27
2023-01-17T13:10:37.842Z,9.88
2023-01-17T13:13:20.142Z,4.40
2023-01-17T13:15:50.893Z,6.80
2023-01-17T13:18:23.125Z,15.48
2023-01-17T13:21:06.674Z,6.13
2023-01-17T13:23:59.034Z,5.90
2023-01-17T13:26:39.762Z,9.07
2023-01-17T13:29:15.855Z,7.55
2023-01-17T13:31:49.407Z,5.82
2023-01-17T13:34:50.931Z,8.20
2023-01-17T13:37:42.435Z,6.65
2023-01-17T13:40:27.409Z,7.53
2023-01-17T13:42:58.873Z,10.10
2023-01-17T13:45:29.077Z,6.57
2023-01-17T13:48:25.662Z,6.43
2023-01-17T13:50:55.519Z,6.93
2023-01-17T13:53:59.668Z,6.65
2023-01-17T13:56:40.379Z,12.18
2023-01-17T13:59:30.892Z,8.40
2023-01-17T14:01:58.648Z,5.25
2023-01-17T14:04:47.501Z,9.32
2023-01-17T14:07:26.624Z,6.60
2023-01-17T14:09:55.286Z,5.95
2023-01-17T14:12:32.824Z,27.55
2023-01-17T14:15:05.731Z,23.98
2023-01-17T14:17:45.305Z,12.25
2023-01-17T14:20:50.112Z,6.28
2023-01-17T14:23:34.002Z,9.82
2023-01-17T14:26:19.833Z,6.50
2023-01-17T14:28:49.243Z,8.55
2023-01-17T14:31:19.236Z,9.15
2023-01-17T14:33:47.615Z,10.48
2023-01-17T14:36:24.868Z,9.35
2023-01-17T14:38:53.243Z,9.20
2023-01-17T14:41:23.372Z,7.45
2023-01-17T14:43:53.830Z,12.82
2023-01-17T14:46:26.418Z,15.30
2023-01-17T14:49:01.836Z,7.05
2023-01-17T14:51:30.134Z,8.95
2023-01-17T14:53:59.592Z,5.63
2023-01-17T14:56:30.198Z,7.78
2023-01-17T14:59:17.000Z,6.75
2023-01-17T15:01:58.173Z,12.75
2023-01-17T15:04:39.313Z,6.07
2023-01-17T15:07:08.915Z,10.38
2023-01-17T15:09:38.946Z,12.70
2023-01-17T15:12:10.848Z,6.32
2023-01-17T15:14:43.976Z,9.80
2023-01-17T15:17:17.965Z,4.78
2023-01-17T15:19:49.008Z,6.18
2023-01-17T15:22:18.931Z,6.43
2023-01-17T15:24:48.119Z,10.75
2023-01-17T15:27:17.377Z,9.50
2023-01-17T15:29:48.102Z,8.38
2023-01-17T15:32:21.640Z,6.32
2023-01-17T15:34:51.383Z,9.50
2023-01-17T15:37:26.935Z,15.95
2023-01-17T15:40:04.063Z,14.27
2023-01-17T15:42:33.345Z,9.73
2023-01-17T15:45:05.521Z,6.55
2023-01-17T15:47:35.484Z,8.85
2023-01-17T15:50:25.673Z,6.40
2023-01-17T15:52:55.832Z,8.98
2023-01-17T15:55:27.558Z,7.70
2023-01-17T15:57:55.336Z,5.38
2023-01-17T16:03:25.109Z,4.25
2023-01-17T16:05:56.946Z,6.10
2023-01-17T16:08:40.324Z,9.40
2023-01-17T16:11:11.941Z,4.32
2023-01-17T16:13:42.297Z,4.95
2023-01-17T16:16:17.923Z,10.43
2023-01-17T16:18:47.538Z,7.93
2023-01-17T16:21:25.023Z,12.45
2023-01-17T16:23:54.117Z,5.13
2023-01-17T16:26:22.067Z,7.60
2023-01-17T16:28:50.749Z,5.28
2023-01-17T16:31:20.574Z,9.02
2023-01-17T16:33:50.655Z,8.05
2023-01-17T16:36:20.853Z,9.82
2023-01-17T16:38:50.873Z,5.70
2023-01-17T16:41:19.430Z,4.82
2023-01-17T16:43:48.456Z,4.35
2023-01-17T16:46:16.904Z,5.25
2023-01-17T16:48:46.277Z,7.38
2023-01-17T16:51:14.103Z,9.73
2023-01-17T16:53:42.055Z,6.97
2023-01-17T16:56:13.810Z,6.95
2023-01-17T16:58:42.380Z,8.68
2023-01-17T17:01:11.412Z,5.07
2023-01-17T17:03:40.155Z,11.55
2023-01-17T17:06:10.041Z,5.45
2023-01-17T17:08:39.801Z,7.47
2023-01-17T17:11:13.890Z,7.68
2023-01-17T17:13:42.881Z,9.68
2023-01-17T17:16:16.074Z,6.93
2023-01-17T17:18:45.401Z,10.35
2023-01-17T17:21:14.784Z,6.70
2023-01-17T17:23:42.742Z,2.90
2023-01-17T17:26:11.466Z,9.13
2023-01-17T17:28:39.429Z,6.85
2023-01-17T17:31:10.486Z,8.65
2023-01-17T17:33:39.335Z,7.53
2023-01-17T17:36:10.299Z,7.35
2023-01-17T17:38:51.046Z,6.72
2023-01-17T17:41:20.312Z,6.13
2023-01-17T17:43:48.460Z,5.00
2023-01-17T17:46:16.709Z,9.77
2023-01-17T17:48:44.831Z,8.13
2023-01-17T17:51:24.415Z,12.93
2023-01-17T17:53:54.755Z,9.73
2023-01-17T17:56:23.490Z,8.63
2023-01-17T17:58:52.361Z,9.70
2023-01-17T18:01:22.993Z,9.60
2023-01-17T18:03:51.385Z,11.88
2023-01-17T18:06:20.049Z,8.07
2023-01-17T18:08:48.301Z,10.70
2023-01-17T18:11:20.031Z,9.93
2023-01-17T18:13:50.500Z,9.82
2023-01-17T18:16:21.276Z,5.78
2023-01-17T18:18:51.680Z,8.50
2023-01-17T18:21:24.041Z,6.20
2023-01-17T18:23:54.508Z,12.20
2023-01-17T18:26:26.185Z,6.07
2023-01-17T18:28:55.365Z,14.52
2023-01-17T18:31:25.196Z,6.40
2023-01-17T18:33:54.281Z,11.27
2023-01-17T18:36:23.350Z,6.95
2023-01-17T18:38:51.825Z,5.28
2023-01-17T18:41:22.538Z,9.35
2023-01-17T18:43:52.754Z,10.63
2023-01-17T18:46:21.969Z,11.05
2023-01-17T18:48:49.959Z,10.57
2023-01-17T18:51:20.629Z,7.07
2023-01-17T18:53:49.946Z,8.63
2023-01-17T18:56:20.607Z,6.90
2023-01-17T18:58:50.463Z,6.13
2023-01-17T19:01:22.334Z,5.20
2023-01-17T19:03:53.029Z,7.43
2023-01-17T19:06:24.225Z,10.15
2023-01-17T19:08:53.186Z,11.27
2023-01-17T19:11:22.591Z,5.82
2023-01-17T19:13:51.227Z,8.55
2023-01-17T19:16:24.605Z,7.22
2023-01-17T19:18:53.534Z,8.93
2023-01-17T19:21:24.488Z,7.72
2023-01-17T19:23:53.117Z,10.80
2023-01-17T19:26:22.911Z,6.97
2023-01-17T19:28:54.718Z,9.07
2023-01-17T19:31:26.258Z,5.55
2023-01-17T19:33:57.660Z,5.30
2023-01-17T19:36:27.986Z,8.70
2023-01-17T19:39:04.502Z,11.77
2023-01-17T19:41:35.534Z,7.95
2023-01-17T19:44:08.263Z,8.27
2023-01-17T19:46:38.609Z,9.77
2023-01-17T19:49:08.783Z,11.52
2023-01-17T19:51:37.483Z,7.43
2023-01-17T19:54:07.058Z,11.23
2023-01-17T19:56:35.488Z,9.65
2023-01-17T19:59:04.153Z,12.18
2023-01-17T20:01:35.047Z,17.30
2023-01-17T20:04:09.903Z,9.80
2023-01-17T20:06:38.409Z,6.72
2023-01-17T20:09:07.213Z,12.13
2023-01-17T20:11:35.536Z,11.65
2023-01-17T20:14:06.134Z,15.65
2023-01-17T20:16:37.119Z,11.27
2023-01-17T20:19:07.587Z,9.77
2023-01-17T20:21:35.518Z,12.00
2023-01-17T20:24:04.429Z,15.68
2023-01-17T20:26:35.979Z,15.48
2023-01-17T20:29:06.910Z,15.95
2023-01-17T20:31:38.671Z,12.60
2023-01-17T20:34:10.030Z,18.48
2023-01-17T20:36:39.133Z,16.77
2023-01-17T20:39:11.035Z,15.52
2023-01-17T20:41:42.345Z,18.65
2023-01-17T20:44:16.918Z,19.17
2023-01-17T20:50:28.411Z,10.95
2023-01-17T20:52:56.871Z,14.40
2023-01-17T20:55:29.140Z,19.65
2023-01-17T20:57:59.740Z,13.65
2023-01-17T21:00:27.684Z,19.17
2023-01-17T21:02:57.232Z,18.70
2023-01-17T21:05:25.662Z,20.83
2023-01-17T21:07:55.096Z,15.50
2023-01-17T21:10:23.111Z,14.77
2023-01-17T21:12:51.651Z,20.52
2023-01-17T21:15:19.991Z,17.80
2023-01-17T21:17:47.864Z,16.98
2023-01-17T21:20:17.670Z,15.73
2023-01-17T21:22:45.675Z,15.60
2023-01-17T21:25:22.958Z,23.55
2023-01-17T21:27:50.997Z,18.50
2023-01-17T21:30:19.056Z,16.10
2023-01-17T22:32:56.551Z,13.50
2023-01-17T22:35:24.947Z,15.40
2023-01-17T22:43:58.652Z,16.95
2023-01-17T22:46:28.886Z,13.18
2023-01-17T22:48:58.983Z,14.70
2023-01-17T22:51:29.461Z,13.20
2023-01-17T22:54:00.632Z,14.73
2023-01-17T22:56:31.831Z,11.85
2023-01-17T22:59:01.144Z,14.95
2023-01-17T23:01:31.693Z,15.82
2023-01-17T23:04:02.845Z,13.55
2023-01-17T23:06:32.842Z,13.55
2023-01-17T23:09:03.365Z,10.00
2023-01-17T23:11:42.917Z,15.68
2023-01-17T23:14:14.817Z,15.85
2023-01-17T23:17:02.029Z,10.73
2023-01-17T23:19:34.241Z,14.40
2023-01-17T23:22:20.188Z,10.65
2023-01-17T23:24:53.615Z,16.30
2023-01-17T23:27:41.313Z,14.50
2023-01-17T23:30:12.349Z,15.13
2023-01-17T23:32:41.149Z,17.70
2023-01-17T23:35:15.220Z,14.68
2023-01-17T23:38:00.640Z,17.25
2023-01-17T23:40:29.315Z,16.20
2023-01-17T23:43:14.691Z,24.67
2023-01-17T23:45:44.192Z,18.40
2023-01-17T23:48:12.889Z,13.90
2023-01-17T23:50:45.018Z,15.13
2023-01-17T23:53:16.150Z,16.50
2023-01-17T23:55:47.384Z,11.57
2023-01-17T23:58:15.887Z,17.55
